Terminal Aerodrome Forecast
Issued by NWS

Home | Current Version | Previous Version | Text Only | Print | Product List | Glossary On
Versions: 1 2 3 4 5 6 7 8 9 10 11 12 13 14 15 16
000
FTUS43 KDTX 241732
TAFDET
TAF
KDET 241732Z 2418/2518 24007KT P6SM BKN045
     FM242000 23008KT P6SM BKN035
     FM250200 23004KT P6SM SCT025 BKN080
     FM251200 24009KT P6SM BKN025 OVC060=

USA.gov is the U.S. government's official web portal to all federal, state and local government web resources and services.